Time;durP1;ratioP1;P1;durP2;ratioP2;P2;SDS_P1;SDS_P2;PMS_P1;PMS_P2;Temp;Humidity;BMP_temperature;BMP_pressure;BME280_temperature;BME280_humidity;BME280_pressure;Samples;Min_cycle;Max_cycle;Signal;HPM_P1;HPM_P2
2024/03/08 00:02:41;;;;;;;49.60;24.10;;;;;;;0.84;100.00;99664.13;273064;1278;22194;-89
2024/03/08 00:10:29;;;;;;;;;;;;;;;0.80;100.00;99659.25;272806;1279;22431;-89
2024/03/08 00:25:51;;;;;;;42.70;24.20;;;;;;;0.81;100.00;99658.89;272032;1286;23703;-89
2024/03/08 00:32:25;;;;;;;44.80;23.10;;;;;;;0.83;100.00;99654.38;271173;1291;22259;-89
2024/03/08 00:47:06;;;;;;;44.00;23.50;;;;;;;0.83;100.00;99643.77;271514;1272;23287;-90
2024/03/08 00:54:22;;;;;;;39.10;22.60;;;;;;;0.80;100.00;99637.57;273698;1270;22188;-88
2024/03/08 01:01:29;;;;;;;48.30;24.60;;;;;;;0.79;100.00;99637.64;272905;1277;22220;-90
2024/03/08 01:16:22;;;;;;;;;;;;;;;;;;;;;
2024/03/08 01:24:05;;;;;;;43.20;22.80;;;;;;;0.81;100.00;99624.55;273031;1276;22337;-89
2024/03/08 01:37:50;;;;;;;44.80;23.40;;;;;;;0.78;100.00;99613.73;272323;1273;22265;-88
2024/03/08 01:45:40;;;;;;;46.00;22.90;;;;;;;0.76;100.00;99611.70;273870;1275;23453;-90
2024/03/08 02:01:09;;;;;;;45.50;22.80;;;;;;;0.74;100.00;99601.40;265094;1279;10134475;-90
2024/03/08 02:08:16;;;;;;;;;;;;;;;;;;;;;
2024/03/08 02:15:37;;;;;;;41.90;22.00;;;;;;;0.69;100.00;99591.34;272294;1272;22977;-89
2024/03/08 02:37:18;;;;;;;52.90;24.70;;;;;;;0.66;100.00;99581.49;267074;1277;23437;-90
2024/03/08 02:43:24;;;;;;;43.50;23.00;;;;;;;0.66;100.00;99581.77;271275;1276;22171;-90
2024/03/08 02:49:26;;;;;;;43.00;22.30;;;;;;;0.67;100.00;99583.42;271534;1276;22369;-90
2024/03/08 02:55:29;;;;;;;39.60;21.90;;;;;;;0.65;100.00;99588.09;271278;1276;22885;-90
2024/03/08 03:01:32;;;;;;;42.70;22.60;;;;;;;0.67;100.00;99589.84;271282;1276;23232;-90
2024/03/08 03:07:33;;;;;;;44.50;23.60;;;;;;;0.68;100.00;99589.21;271137;1276;22551;-90
2024/03/08 03:13:36;;;;;;;47.80;23.90;;;;;;;0.67;100.00;99586.54;271488;1276;23349;-90
2024/03/08 03:19:40;;;;;;;52.70;25.10;;;;;;;0.65;100.00;99583.98;271440;1276;22321;-90
2024/03/08 03:25:42;;;;;;;36.20;21.70;;;;;;;0.64;100.00;99587.45;271273;1276;24147;-91
2024/03/08 03:31:46;;;;;;;46.10;23.00;;;;;;;0.65;100.00;99585.02;271345;1276;22388;-90
2024/03/08 03:38:01;;;;;;;44.80;23.90;;;;;;;0.64;100.00;99586.75;271470;1276;22275;-90
2024/03/08 03:44:03;;;;;;;42.30;21.40;;;;;;;0.64;100.00;99590.05;271297;1276;22386;-91
2024/03/08 03:50:06;;;;;;;46.20;23.50;;;;;;;0.63;100.00;99591.07;271407;1276;22214;-89
2024/03/08 03:56:08;;;;;;;41.80;22.20;;;;;;;0.63;100.00;99588.81;271342;1276;22282;-91
2024/03/08 04:02:10;;;;;;;39.90;22.40;;;;;;;0.59;100.00;99585.80;271440;1275;22415;-91
2024/03/08 04:08:16;;;;;;;40.10;21.30;;;;;;;0.55;100.00;99582.27;271273;1276;22311;-89
2024/03/08 04:14:18;;;;;;;39.90;22.40;;;;;;;0.50;100.00;99576.20;271375;1276;23759;-90
2024/03/08 04:20:21;;;;;;;43.40;22.70;;;;;;;0.48;100.00;99580.73;271444;1264;23756;-90
2024/03/08 04:26:23;;;;;;;46.70;25.30;;;;;;;0.50;100.00;99578.80;271260;1276;22400;-89
2024/03/08 04:32:25;;;;;;;50.40;26.20;;;;;;;0.52;100.00;99575.86;271506;1268;22212;-90
2024/03/08 04:38:27;;;;;;;45.90;24.30;;;;;;;0.53;100.00;99576.77;271374;1276;22434;-91
2024/03/08 04:44:30;;;;;;;46.00;23.90;;;;;;;0.49;100.00;99580.65;271382;1276;22513;-90
2024/03/08 04:50:32;;;;;;;43.70;24.30;;;;;;;0.43;100.00;99586.14;271262;1276;22264;-90
2024/03/08 04:56:33;;;;;;;53.60;24.30;;;;;;;0.39;100.00;99586.10;271398;1276;22208;-90
2024/03/08 05:02:38;;;;;;;42.80;23.70;;;;;;;0.40;100.00;99590.13;271487;1273;22215;-90
2024/03/08 05:08:53;;;;;;;40.20;22.10;;;;;;;0.38;100.00;99593.55;271291;1276;22880;-90
2024/03/08 05:14:58;;;;;;;40.60;22.30;;;;;;;0.32;100.00;99597.85;271445;1276;22819;-90
2024/03/08 05:21:03;;;;;;;45.00;23.20;;;;;;;0.29;100.00;99597.62;271347;1276;22328;-89
2024/03/08 05:27:09;;;;;;;45.80;23.70;;;;;;;0.28;100.00;99598.45;271483;1276;23291;-91
2024/03/08 05:33:14;;;;;;;45.30;23.00;;;;;;;0.28;100.00;99594.30;271443;1264;23916;-89
2024/03/08 05:39:17;;;;;;;41.40;22.50;;;;;;;0.27;100.00;99600.39;271508;1276;22405;-91
2024/03/08 05:45:19;;;;;;;40.60;21.20;;;;;;;0.26;100.00;99601.65;271251;1276;22273;-89
2024/03/08 05:51:27;;;;;;;40.40;22.10;;;;;;;0.24;100.00;99598.89;271202;1276;22327;-88
2024/03/08 05:57:30;;;;;;;45.70;23.70;;;;;;;0.21;100.00;99601.02;271341;1276;23834;-89
2024/03/08 06:03:32;;;;;;;41.90;22.80;;;;;;;0.23;100.00;99599.98;271304;1275;22373;-90
2024/03/08 06:09:34;;;;;;;45.40;24.80;;;;;;;0.27;100.00;99599.86;271649;1267;22309;-89
2024/03/08 06:15:37;;;;;;;46.40;24.80;;;;;;;0.33;100.00;99601.98;269983;1276;23349;-91
2024/03/08 06:21:39;;;;;;;46.80;25.10;;;;;;;0.38;100.00;99599.73;270632;1275;23838;-90
2024/03/08 06:27:50;;;;;;;49.50;26.60;;;;;;;0.42;100.00;99598.33;271641;1276;22414;-91
2024/03/08 06:34:19;;;;;;;44.40;24.60;;;;;;;0.45;100.00;99596.02;271276;1276;22426;-91
2024/03/08 06:40:43;;;;;;;46.70;25.80;;;;;;;0.47;100.00;99603.25;271596;1276;22244;-91
2024/03/08 06:46:56;;;;;;;48.10;25.10;;;;;;;0.50;100.00;99602.02;271573;1276;22196;-90
2024/03/08 06:53:00;;;;;;;40.90;23.40;;;;;;;0.54;100.00;99602.45;271518;1267;22292;-89
2024/03/08 06:59:06;;;;;;;46.90;25.60;;;;;;;0.60;100.00;99602.17;270935;1276;23197;-91
2024/03/08 07:05:17;;;;;;;48.00;23.50;;;;;;;0.63;100.00;99601.16;271156;1276;24811;-91
2024/03/08 07:11:22;;;;;;;43.40;21.90;;;;;;;0.63;100.00;99600.08;271369;1276;22309;-91
2024/03/08 07:17:26;;;;;;;44.50;24.80;;;;;;;0.60;100.00;99598.77;271317;1276;22367;-90
2024/03/08 07:23:54;;;;;;;46.90;25.30;;;;;;;0.63;100.00;99597.92;271279;1276;22445;-90
2024/03/08 07:29:57;;;;;;;45.60;24.90;;;;;;;0.71;100.00;99602.91;271376;1276;22409;-91
2024/03/08 07:36:02;;;;;;;43.70;23.80;;;;;;;0.77;100.00;99605.06;271272;1276;22418;-91
2024/03/08 07:42:04;;;;;;;47.00;25.10;;;;;;;0.77;100.00;99601.95;271338;1276;22381;-90
2024/03/08 07:48:09;;;;;;;43.40;23.60;;;;;;;0.81;100.00;99605.59;271249;1276;22357;-91
2024/03/08 07:54:13;;;;;;;42.50;24.60;;;;;;;0.84;100.00;99605.38;271286;1276;22442;-91
2024/03/08 08:00:17;;;;;;;44.50;24.70;;;;;;;0.82;100.00;99607.52;271302;1276;22410;-91
2024/03/08 08:06:19;;;;;;;41.30;22.90;;;;;;;0.79;100.00;99601.15;271441;1276;22412;-91
2024/03/08 08:12:29;;;;;;;50.60;25.00;;;;;;;0.77;100.00;99595.20;271347;1276;22404;-92
2024/03/08 08:18:33;;;;;;;44.20;22.50;;;;;;;0.81;100.00;99595.13;271187;1276;22391;-91
2024/03/08 08:24:36;;;;;;;45.90;24.40;;;;;;;0.77;100.00;99596.21;271325;1276;22354;-92
2024/03/08 08:30:39;;;;;;;44.90;25.50;;;;;;;0.82;100.00;99597.59;271261;1276;22383;-91
2024/03/08 08:36:40;;;;;;;42.50;24.00;;;;;;;0.93;100.00;99598.10;271365;1276;22224;-91
2024/03/08 08:42:45;;;;;;;39.10;22.20;;;;;;;0.93;100.00;99598.74;271444;1276;22184;-91
2024/03/08 08:48:52;;;;;;;42.30;23.20;;;;;;;0.87;100.00;99595.34;271561;1276;22198;-90
2024/03/08 08:54:54;;;;;;;43.60;24.80;;;;;;;0.98;100.00;99596.86;271342;1270;23737;-91
2024/03/08 09:00:56;;;;;;;46.30;23.60;;;;;;;1.10;100.00;99596.90;271532;1276;23409;-90
2024/03/08 09:06:58;;;;;;;39.40;22.80;;;;;;;1.20;100.00;99598.13;271343;1275;23315;-89
2024/03/08 09:13:04;;;;;;;45.10;24.00;;;;;;;1.28;100.00;99593.44;271370;1276;23275;-89
2024/03/08 09:19:06;;;;;;;40.00;20.40;;;;;;;1.32;100.00;99593.08;271383;1276;22201;-89
2024/03/08 09:25:09;;;;;;;43.50;25.10;;;;;;;1.35;100.00;99593.24;271475;1276;22993;-90
2024/03/08 09:31:12;;;;;;;46.30;25.70;;;;;;;1.38;100.00;99591.88;271295;1276;22436;-89
2024/03/08 09:37:14;;;;;;;41.00;23.30;;;;;;;1.50;100.00;99590.49;271433;1264;22994;-89
2024/03/08 09:43:18;;;;;;;44.80;25.10;;;;;;;1.53;100.00;99592.72;271481;1276;24022;-91
2024/03/08 09:49:28;;;;;;;36.70;21.20;;;;;;;1.55;100.00;99590.07;271458;1276;22389;-90
2024/03/08 09:55:34;;;;;;;44.10;23.80;;;;;;;1.52;100.00;99585.72;271444;1273;22198;-90
2024/03/08 10:01:38;;;;;;;42.80;24.50;;;;;;;1.47;100.00;99581.56;271400;1277;22364;-89
2024/03/08 10:07:44;;;;;;;40.80;23.40;;;;;;;1.58;100.00;99583.05;271481;1276;23293;-89
2024/03/08 10:13:47;;;;;;;40.00;23.80;;;;;;;1.65;100.00;99575.13;271374;1270;23272;-89
2024/03/08 10:19:51;;;;;;;43.70;22.60;;;;;;;1.69;100.00;99580.72;271491;1276;22424;-89
2024/03/08 10:25:54;;;;;;;43.30;24.20;;;;;;;1.77;100.00;99579.40;271446;1277;22193;-87
2024/03/08 10:31:56;;;;;;;41.80;22.80;;;;;;;1.81;100.00;99579.00;271516;1263;23098;-88
2024/03/08 10:37:59;;;;;;;41.30;24.40;;;;;;;1.77;99.48;99578.35;271578;1275;22223;-90
2024/03/08 10:44:30;;;;;;;35.20;20.50;;;;;;;1.86;100.00;99575.80;271333;1276;23312;-89
2024/03/08 10:50:34;;;;;;;43.00;24.00;;;;;;;1.99;100.00;99572.02;271276;1276;23594;-88
2024/03/08 10:56:39;;;;;;;44.00;23.80;;;;;;;2.05;100.00;99565.86;271212;1275;22215;-90
2024/03/08 11:02:44;;;;;;;43.70;24.60;;;;;;;2.24;100.00;99551.91;271470;1273;22189;-90
2024/03/08 11:08:47;;;;;;;39.00;23.00;;;;;;;2.33;99.99;99551.10;271403;1275;22400;-90
2024/03/08 11:14:49;;;;;;;43.10;23.10;;;;;;;2.34;99.99;99549.20;271157;1276;22566;-88
2024/03/08 11:20:55;;;;;;;41.00;21.60;;;;;;;2.44;100.00;99540.55;270991;1276;22382;-88
2024/03/08 11:26:59;;;;;;;41.50;22.90;;;;;;;2.52;99.00;99536.18;271448;1276;22210;-90
2024/03/08 11:33:19;;;;;;;41.80;25.00;;;;;;;2.53;98.72;99533.73;271277;1276;22552;-90
2024/03/08 11:39:37;;;;;;;39.60;20.60;;;;;;;2.60;98.12;99532.06;271404;1276;22415;-89
2024/03/08 11:45:52;;;;;;;39.30;22.50;;;;;;;2.76;97.84;99528.43;271356;1275;22369;-89
2024/03/08 11:51:56;;;;;;;42.10;24.20;;;;;;;2.78;97.73;99527.99;271144;1276;22456;-89
2024/03/08 11:58:08;;;;;;;40.60;22.90;;;;;;;2.83;97.88;99521.91;271311;1276;23752;-88
2024/03/08 12:20:29;;;;;;;34.80;20.40;;;;;;;3.75;94.99;99503.50;270166;1282;23045;-87
2024/03/08 12:35:17;;;;;;;32.30;21.00;;;;;;;3.82;92.73;99494.67;269673;1282;22626;-90
2024/03/08 12:41:21;;;;;;;38.40;21.90;;;;;;;3.88;91.58;99490.48;269025;1276;22543;-88
2024/03/08 12:47:29;;;;;;;35.40;21.70;;;;;;;3.86;89.83;99488.84;271005;1275;22244;-89
2024/03/08 12:53:40;;;;;;;36.10;21.30;;;;;;;3.86;90.17;99481.48;271560;1276;22634;-88
2024/03/08 12:59:45;;;;;;;39.30;22.70;;;;;;;3.93;91.00;99466.16;271430;1276;22376;-89
2024/03/08 13:05:47;;;;;;;34.70;21.00;;;;;;;4.08;90.51;99458.69;271112;1276;23722;-88
2024/03/08 13:12:10;;;;;;;35.80;21.20;;;;;;;4.00;90.32;99451.13;270354;1276;23602;-90
2024/03/08 13:18:19;;;;;;;38.30;21.40;;;;;;;4.18;92.15;99443.65;270136;1276;23628;-88
2024/03/08 13:24:21;;;;;;;32.50;19.10;;;;;;;4.52;92.47;99440.41;271410;1277;23156;-89
2024/03/08 13:30:58;;;;;;;92.00;52.90;;;;;;;4.64;91.19;99435.41;272025;1276;22167;-90
2024/03/08 13:37:46;;;;;;;37.60;23.50;;;;;;;4.85;91.76;99429.83;271246;1276;22292;-89
2024/03/08 13:43:55;;;;;;;35.50;21.20;;;;;;;4.95;89.95;99424.48;271557;1276;22221;-89
2024/03/08 13:49:57;;;;;;;39.10;22.40;;;;;;;4.79;87.82;99419.97;271640;1276;22192;-86
2024/03/08 13:56:01;;;;;;;37.10;21.90;;;;;;;4.66;87.62;99414.27;271318;1276;23315;-88
2024/03/08 14:02:13;;;;;;;39.10;23.90;;;;;;;4.65;87.63;99411.52;271110;1276;320094;-91
2024/03/08 14:08:17;;;;;;;40.10;21.90;;;;;;;4.64;87.94;99406.48;271444;1276;22194;-88
2024/03/08 14:14:23;;;;;;;35.20;20.80;;;;;;;4.68;87.86;99403.73;271490;1276;22194;-89
2024/03/08 14:20:25;;;;;;;39.00;22.10;;;;;;;4.64;85.53;99398.92;271500;1277;23217;-89
2024/03/08 14:26:27;;;;;;;34.80;20.30;;;;;;;4.61;86.24;99399.41;271041;1275;22367;-88
2024/03/08 14:32:29;;;;;;;39.00;21.50;;;;;;;4.73;87.29;99392.00;271305;1276;23501;-88
2024/03/08 14:38:31;;;;;;;37.00;21.80;;;;;;;4.84;87.16;99390.17;271209;1276;22492;-90
2024/03/08 14:44:33;;;;;;;37.50;22.40;;;;;;;4.84;85.90;99385.23;271536;1268;22206;-89
2024/03/08 14:50:36;;;;;;;35.40;21.20;;;;;;;4.81;85.42;99383.86;270503;1276;22390;-89
2024/03/08 14:56:41;;;;;;;38.10;22.80;;;;;;;4.71;86.14;99379.84;270426;1276;22617;-89
2024/03/08 15:02:44;;;;;;;41.20;22.70;;;;;;;4.64;85.31;99377.61;270287;1276;22557;-88
2024/03/08 15:08:47;;;;;;;38.90;21.90;;;;;;;4.50;85.53;99370.69;271352;1276;23039;-87
2024/03/08 15:14:51;;;;;;;38.80;22.20;;;;;;;4.44;85.79;99364.40;269993;1276;22238;-89
2024/03/08 15:20:53;;;;;;;41.40;23.70;;;;;;;4.34;85.66;99361.41;271171;1262;22549;-90
2024/03/08 15:27:06;;;;;;;40.50;22.10;;;;;;;4.24;85.62;99361.62;268980;1276;22045;-88
2024/03/08 15:33:10;;;;;;;37.90;21.50;;;;;;;4.12;85.71;99357.77;269551;1276;22558;-89
2024/03/08 15:39:15;;;;;;;40.30;23.70;;;;;;;4.03;85.35;99354.14;268923;1276;23439;-89
2024/03/08 15:45:19;;;;;;;38.50;21.50;;;;;;;3.95;85.79;99350.38;268684;1276;23301;-89
2024/03/08 15:51:26;;;;;;;38.10;22.60;;;;;;;3.86;85.90;99347.76;270283;1274;22208;-89
2024/03/08 15:57:43;;;;;;;;;;;;;;;;;;;;;
2024/03/08 16:04:07;;;;;;;43.20;24.60;;;;;;;3.63;86.35;99351.50;271180;1276;22279;-89
2024/03/08 16:10:39;;;;;;;44.00;23.00;;;;;;;3.52;86.77;99348.58;269776;1276;22476;-89
2024/03/08 16:16:49;;;;;;;52.20;26.90;;;;;;;3.41;86.86;99348.17;269065;1276;23359;-89
2024/03/08 16:23:04;;;;;;;45.20;24.50;;;;;;;3.29;87.08;99345.26;269222;1268;24063;-88
2024/03/08 16:29:16;;;;;;;46.10;25.80;;;;;;;3.16;87.45;99345.21;269984;1276;23684;-90
2024/03/08 16:35:46;;;;;;;48.30;26.50;;;;;;;3.03;87.82;99349.86;270549;1276;24799;-89
2024/03/08 16:41:49;;;;;;;51.90;26.20;;;;;;;2.90;88.18;99346.27;269572;1276;22538;-89
2024/03/08 16:47:55;;;;;;;51.20;27.20;;;;;;;2.79;88.47;99343.48;271343;1276;22210;-89
2024/03/08 16:53:57;;;;;;;61.50;29.80;;;;;;;2.65;88.67;99344.53;271400;1276;22234;-88
2024/03/08 16:59:59;;;;;;;53.20;28.90;;;;;;;2.52;88.99;99343.67;271147;1276;22972;-89
2024/03/08 17:06:05;;;;;;;58.20;29.30;;;;;;;2.40;89.25;99340.67;271409;1276;23185;-88
2024/03/08 17:12:10;;;;;;;58.00;29.50;;;;;;;2.28;89.68;99346.13;271573;1276;22306;-89
2024/03/08 17:18:12;;;;;;;62.50;30.40;;;;;;;2.19;90.38;99342.34;271144;1277;23592;-89
2024/03/08 17:24:16;;;;;;;57.10;31.00;;;;;;;2.07;90.81;99335.88;268942;1276;22594;-89
2024/03/08 17:30:26;;;;;;;68.70;36.80;;;;;;;1.89;90.99;99335.80;271392;1276;22641;-89
2024/03/08 17:36:33;;;;;;;89.30;44.50;;;;;;;1.62;91.17;99333.20;271314;1276;22971;-89
2024/03/08 17:42:38;;;;;;;112.60;50.00;;;;;;;1.38;91.76;99331.40;269222;1277;22571;-89
2024/03/08 17:48:41;;;;;;;85.70;41.60;;;;;;;1.20;92.31;99332.97;270036;1276;22429;-89
2024/03/08 17:54:43;;;;;;;110.50;49.80;;;;;;;1.03;92.82;99330.61;271511;1276;23154;-89
2024/03/08 18:00:45;;;;;;;209.50;83.10;;;;;;;0.86;93.33;99331.34;270500;1276;22301;-89
2024/03/08 18:06:48;;;;;;;129.10;56.40;;;;;;;0.66;93.30;99331.73;271554;1269;22195;-89
2024/03/08 18:12:58;;;;;;;193.20;80.10;;;;;;;0.46;93.77;99329.83;271440;1277;22392;-89
2024/03/08 18:19:10;;;;;;;167.60;68.30;;;;;;;0.30;94.27;99331.71;270824;1276;22579;-88
2024/03/08 18:25:23;;;;;;;144.60;58.60;;;;;;;0.15;94.87;99332.54;269458;1276;22755;-90
2024/03/08 18:31:50;;;;;;;125.20;53.80;;;;;;;-0.01;95.37;99331.50;270942;1276;21754;-89
2024/03/08 18:38:00;;;;;;;106.10;48.30;;;;;;;-0.17;95.50;99326.15;271305;1277;22840;-90
2024/03/08 18:44:16;;;;;;;;;;;;;;;;;;;;;
2024/03/08 18:50:59;;;;;;;96.90;46.90;;;;;;;-0.46;96.68;99319.61;271317;1276;22351;-89
2024/03/08 18:57:07;;;;;;;103.60;48.80;;;;;;;-0.56;97.05;99315.92;271402;1276;23331;-89
2024/03/08 19:03:17;;;;;;;159.70;65.60;;;;;;;-0.66;97.32;99310.55;271564;1276;22391;-88
2024/03/08 19:09:46;;;;;;;126.10;54.40;;;;;;;-0.76;97.70;99308.45;271227;1273;22471;-88
2024/03/08 19:16:15;;;;;;;109.00;48.90;;;;;;;-0.84;98.02;99309.27;270222;1276;22556;-89
2024/03/08 19:22:32;;;;;;;114.70;50.40;;;;;;;-0.95;98.24;99308.21;269766;1276;23494;-88
2024/03/08 19:29:04;;;;;;;100.20;48.20;;;;;;;-1.03;98.82;99309.56;270466;1276;22203;-88
2024/03/08 19:35:11;;;;;;;115.80;58.50;;;;;;;-1.09;99.11;99308.81;271455;1276;22640;-87
2024/03/08 19:41:13;;;;;;;112.80;51.30;;;;;;;-1.16;99.35;99306.54;271254;1276;23375;-87
2024/03/08 19:47:15;;;;;;;104.30;51.00;;;;;;;-1.22;99.63;99305.89;269727;1276;23705;-87
2024/03/08 19:53:17;;;;;;;116.80;52.60;;;;;;;-1.26;99.92;99298.75;269358;1276;22554;-87
2024/03/08 19:59:19;;;;;;;114.60;52.40;;;;;;;-1.31;99.96;99295.38;270563;1276;22352;-87
2024/03/08 20:05:24;;;;;;;159.10;66.20;;;;;;;-1.41;100.00;99291.33;271430;1276;22209;-88
2024/03/08 20:11:29;;;;;;;153.20;66.70;;;;;;;-1.43;100.00;99295.98;271272;1276;23752;-87
2024/03/08 20:17:31;;;;;;;133.70;61.00;;;;;;;-1.45;100.00;99290.63;271405;1276;22901;-87
2024/03/08 20:23:33;;;;;;;141.00;66.50;;;;;;;-1.48;100.00;99290.61;271503;1276;23134;-87
2024/03/08 20:29:41;;;;;;;133.00;59.70;;;;;;;-1.50;100.00;99289.45;271583;1272;22206;-88
2024/03/08 20:35:48;;;;;;;131.10;59.50;;;;;;;-1.55;100.00;99281.89;271421;1276;23173;-89
2024/03/08 20:41:54;;;;;;;125.80;55.80;;;;;;;-1.62;100.00;99274.65;271362;1276;23275;-88
2024/03/08 20:47:57;;;;;;;136.70;58.10;;;;;;;-1.71;100.00;99269.02;271577;1276;22247;-88
2024/03/08 20:53:59;;;;;;;189.70;71.40;;;;;;;-1.79;100.00;99270.35;272095;1280;22219;-88
2024/03/08 21:00:01;;;;;;;174.10;72.30;;;;;;;-1.83;100.00;99269.06;271533;1276;22361;-88
2024/03/08 21:06:07;;;;;;;232.60;90.10;;;;;;;-1.83;100.00;99271.96;271450;1276;22363;-88
2024/03/08 21:12:13;;;;;;;133.20;58.40;;;;;;;-1.85;100.00;99267.14;271307;1276;22209;-88
2024/03/08 21:18:15;;;;;;;127.80;56.40;;;;;;;-1.89;100.00;99264.67;271560;1276;23397;-87
2024/03/08 21:24:17;;;;;;;129.70;57.50;;;;;;;-1.93;100.00;99266.65;271582;1276;23288;-86
2024/03/08 21:30:22;;;;;;;116.00;53.50;;;;;;;-1.93;100.00;99258.55;271459;1276;22195;-87
2024/03/08 21:36:25;;;;;;;156.80;69.20;;;;;;;-2.00;100.00;99252.14;271464;1276;22283;-87
2024/03/08 21:42:28;;;;;;;148.80;64.60;;;;;;;-2.05;100.00;99248.52;271488;1264;23647;-87
2024/03/08 21:48:30;;;;;;;153.80;67.50;;;;;;;-2.08;100.00;99243.61;271459;1276;24640;-87
2024/03/08 21:54:34;;;;;;;150.70;64.50;;;;;;;-2.13;100.00;99237.23;271456;1276;22321;-86
2024/03/08 22:00:38;;;;;;;146.90;65.40;;;;;;;-2.16;100.00;99236.95;271364;1276;22189;-87
2024/03/08 22:06:41;;;;;;;162.60;67.50;;;;;;;-2.16;100.00;99232.56;271478;1276;22409;-86
2024/03/08 22:12:44;;;;;;;157.30;68.00;;;;;;;-2.11;100.00;99231.09;271486;1276;22394;-87
2024/03/08 22:18:46;;;;;;;168.60;69.20;;;;;;;-2.09;100.00;99226.55;271486;1276;22195;-86
2024/03/08 22:24:55;;;;;;;137.00;61.50;;;;;;;-2.08;100.00;99222.95;271509;1268;22223;-86
2024/03/08 22:30:58;;;;;;;132.10;62.00;;;;;;;-2.18;100.00;99215.45;271635;1276;23184;-86
2024/03/08 22:37:00;;;;;;;131.90;60.20;;;;;;;-2.23;100.00;99217.02;271719;1276;22559;-86
2024/03/08 22:43:04;;;;;;;146.20;65.50;;;;;;;-2.23;100.00;99215.67;271760;1276;22736;-85
2024/03/08 22:49:07;;;;;;;129.50;59.20;;;;;;;-2.26;100.00;99211.37;271425;1276;22228;-88
2024/03/08 22:55:12;;;;;;;115.10;52.30;;;;;;;-2.29;100.00;99215.91;271666;1276;22331;-86
2024/03/08 23:01:17;;;;;;;135.90;57.90;;;;;;;-2.34;100.00;99215.48;271464;1275;22555;-87
2024/03/08 23:07:19;;;;;;;120.10;55.60;;;;;;;-2.35;100.00;99208.19;271636;1276;23003;-85
2024/03/08 23:13:24;;;;;;;135.60;63.30;;;;;;;-2.39;100.00;99207.50;271637;1276;22432;-85
2024/03/08 23:20:05;;;;;;;122.60;55.60;;;;;;;-2.45;100.00;99203.77;272347;1280;22206;-85
2024/03/08 23:26:36;;;;;;;148.80;63.30;;;;;;;-2.57;100.00;99202.02;272510;1283;22255;-85
2024/03/08 23:39:56;;;;;;;138.60;60.00;;;;;;;-2.73;100.00;99196.14;272301;1277;22299;-85
2024/03/08 23:45:58;;;;;;;165.80;66.80;;;;;;;-2.79;100.00;99191.47;272254;1276;22317;-85
2024/03/08 23:52:08;;;;;;;156.60;66.90;;;;;;;-2.81;100.00;99185.66;272282;1283;23255;-85
2024/03/08 23:58:10;;;;;;;168.00;64.90;;;;;;;-2.83;100.00;99180.96;271568;1276;22177;-85
